createdAt,value
2023-05-17T00:01:28.588Z,102848.41
2023-05-17T00:03:56.633Z,102860.94
2023-05-17T00:06:24.718Z,102852.19
2023-05-17T00:08:52.719Z,102849.63
2023-05-17T00:11:20.678Z,102851.53
2023-05-17T00:13:48.647Z,102843.66
2023-05-17T00:16:16.631Z,102846.47
2023-05-17T00:18:46.222Z,102857.09
2023-05-17T00:21:14.347Z,102868.56
2023-05-17T00:23:42.485Z,102855.25
2023-05-17T00:26:10.472Z,102858.72
2023-05-17T00:28:38.450Z,102861.44
2023-05-17T00:31:06.463Z,102865.88
2023-05-17T00:33:34.480Z,102872.13
2023-05-17T00:36:03.910Z,102875.75
2023-05-17T00:38:31.849Z,102873.13
2023-05-17T00:40:59.894Z,102863.38
2023-05-17T00:43:27.876Z,102867.78
2023-05-17T00:45:55.854Z,102874.00
2023-05-17T00:48:25.727Z,102874.03
2023-05-17T00:50:53.979Z,102876.69
2023-05-17T00:53:23.355Z,102866.31
2023-05-17T00:55:51.486Z,102885.59
2023-05-17T00:58:19.477Z,102882.03
2023-05-17T01:00:47.441Z,102884.72
2023-05-17T01:03:18.801Z,102881.19
2023-05-17T01:05:49.758Z,102884.91
2023-05-17T01:08:17.802Z,102874.38
2023-05-17T01:10:59.249Z,102891.34
2023-05-17T01:13:29.297Z,102886.97
2023-05-17T01:16:00.265Z,102888.00
2023-05-17T01:18:31.661Z,102878.25
2023-05-17T01:20:59.987Z,102875.59
2023-05-17T01:23:42.230Z,102874.75
2023-05-17T01:26:16.237Z,102872.88
2023-05-17T01:28:47.388Z,102880.00
2023-05-17T01:31:15.345Z,102885.47
2023-05-17T01:33:43.462Z,102884.88
2023-05-17T01:36:11.504Z,102890.38
2023-05-17T01:38:39.470Z,102883.34
2023-05-17T01:41:11.994Z,102870.91
2023-05-17T01:43:43.167Z,102877.25
2023-05-17T01:46:15.191Z,102878.00
2023-05-17T01:48:46.102Z,102877.06
2023-05-17T01:51:16.110Z,102878.88
2023-05-17T01:53:46.852Z,102879.88
2023-05-17T01:56:17.714Z,102875.56
2023-05-17T01:58:46.833Z,102880.06
2023-05-17T02:01:16.351Z,102880.06
2023-05-17T02:03:44.260Z,102881.88
2023-05-17T02:06:12.813Z,102887.34
2023-05-17T02:08:40.837Z,102888.47
2023-05-17T02:11:08.871Z,102886.03
2023-05-17T02:13:36.770Z,102892.41
2023-05-17T02:16:04.872Z,102896.03
2023-05-17T02:18:35.501Z,102894.31
2023-05-17T02:21:03.657Z,102895.28
2023-05-17T02:23:31.600Z,102896.19
2023-05-17T02:25:59.498Z,102897.09
2023-05-17T02:28:28.366Z,102899.78
2023-05-17T02:30:56.618Z,102900.72
2023-05-17T02:33:24.703Z,102901.66
2023-05-17T02:35:54.101Z,102903.47
2023-05-17T02:38:22.065Z,102907.06
2023-05-17T02:40:49.935Z,102907.16
2023-05-17T02:43:17.840Z,102900.97
2023-05-17T02:45:45.835Z,102902.75
2023-05-17T02:48:13.758Z,102900.97
2023-05-17T02:50:41.661Z,102897.34
2023-05-17T02:53:11.494Z,102909.78
2023-05-17T02:55:45.492Z,102912.47
2023-05-17T02:58:13.431Z,102914.22
2023-05-17T03:00:41.322Z,102916.88
2023-05-17T03:03:09.346Z,102912.47
2023-05-17T03:05:37.260Z,102911.59
2023-05-17T03:08:05.296Z,102916.09
2023-05-17T03:10:34.764Z,102911.75
2023-05-17T03:13:02.946Z,102917.09
2023-05-17T03:15:31.005Z,102912.69
2023-05-17T03:20:27.118Z,102915.47
2023-05-17T03:22:55.051Z,102924.41
2023-05-17T03:25:23.031Z,102933.31
2023-05-17T03:27:52.380Z,102932.44
2023-05-17T03:30:20.474Z,102930.63
2023-05-17T03:32:48.511Z,102923.53
2023-05-17T03:35:16.434Z,102932.31
2023-05-17T03:37:44.411Z,102925.22
2023-05-17T03:40:12.872Z,102923.47
2023-05-17T03:42:41.543Z,102927.09
2023-05-17T03:45:11.762Z,102932.50
2023-05-17T03:47:39.804Z,102906.06
2023-05-17T03:50:08.916Z,102925.56
2023-05-17T03:52:36.865Z,102929.16
2023-05-17T03:55:05.238Z,102940.75
2023-05-17T03:57:33.150Z,102928.41
2023-05-17T04:00:01.062Z,102937.44
2023-05-17T04:02:30.345Z,102949.06
2023-05-17T04:04:58.276Z,102951.78
2023-05-17T04:07:26.284Z,102953.53
2023-05-17T04:09:54.476Z,102957.09
2023-05-17T04:12:22.411Z,102957.09
2023-05-17T04:14:50.402Z,102947.28
2023-05-17T04:17:18.316Z,102948.16
2023-05-17T04:19:47.700Z,102951.69
2023-05-17T04:22:15.617Z,102954.41
2023-05-17T04:24:43.863Z,102951.81
2023-05-17T04:27:11.750Z,102950.06
2023-05-17T04:29:40.979Z,102948.31
2023-05-17T04:32:09.940Z,102952.78
2023-05-17T04:34:37.819Z,102954.59
2023-05-17T04:37:07.607Z,102953.69
2023-05-17T04:39:35.835Z,102959.00
2023-05-17T04:42:03.890Z,102962.59
2023-05-17T04:44:31.776Z,102959.06
2023-05-17T04:46:59.667Z,102963.50
2023-05-17T04:49:28.406Z,102959.03
2023-05-17T04:51:56.531Z,102965.25
2023-05-17T04:54:26.075Z,102970.59
2023-05-17T04:56:56.837Z,102973.19
2023-05-17T04:59:25.161Z,102911.34
2023-05-17T05:01:53.053Z,102947.41
2023-05-17T05:04:21.197Z,102972.06
2023-05-17T05:06:49.420Z,102977.34
2023-05-17T05:09:17.522Z,102967.50
2023-05-17T05:11:46.969Z,102982.50
2023-05-17T05:14:15.212Z,102981.59
2023-05-17T05:16:47.831Z,102963.84
2023-05-17T05:19:16.959Z,102975.25
2023-05-17T05:21:51.935Z,102975.91
2023-05-17T05:24:20.120Z,102981.09
2023-05-17T05:26:52.100Z,102981.81
2023-05-17T05:29:20.030Z,102989.69
2023-05-17T05:31:48.022Z,102986.81
2023-05-17T05:34:15.915Z,102983.19
2023-05-17T05:36:44.181Z,102986.63
2023-05-17T05:39:12.670Z,102982.13
2023-05-17T05:41:40.612Z,102989.19
2023-05-17T05:44:10.007Z,102992.66
2023-05-17T05:46:37.908Z,102996.06
2023-05-17T05:49:05.887Z,103002.19
2023-05-17T05:51:34.143Z,103007.41
2023-05-17T05:54:02.180Z,103002.94
2023-05-17T05:56:30.082Z,103010.06
2023-05-17T05:58:58.600Z,103017.19
2023-05-17T06:01:28.893Z,103021.59
2023-05-17T06:03:56.953Z,103014.41
2023-05-17T06:06:24.926Z,103016.94
2023-05-17T06:08:59.444Z,103019.53
2023-05-17T06:11:27.731Z,103021.22
2023-05-17T06:13:55.830Z,103015.81
2023-05-17T06:16:23.839Z,103021.91
2023-05-17T06:18:53.199Z,103007.66
2023-05-17T06:21:21.363Z,103031.41
2023-05-17T06:23:49.280Z,103027.69
2023-05-17T06:26:17.321Z,103032.00
2023-05-17T06:28:45.205Z,103037.06
2023-05-17T06:31:13.219Z,103035.06
2023-05-17T06:33:41.390Z,103029.50
2023-05-17T06:36:11.134Z,103028.34
2023-05-17T06:38:39.052Z,103028.97
2023-05-17T06:41:07.130Z,103025.13
2023-05-17T06:43:36.487Z,103025.88
2023-05-17T06:46:05.733Z,103021.09
2023-05-17T06:48:33.761Z,103011.91
2023-05-17T06:51:01.886Z,103009.84
2023-05-17T06:53:31.222Z,103011.47
2023-05-17T06:55:59.476Z,103023.69
2023-05-17T06:58:27.747Z,103028.88
2023-05-17T07:00:55.896Z,103035.00
2023-05-17T07:03:24.059Z,103029.44
2023-05-17T07:05:52.385Z,103035.53
2023-05-17T07:08:21.164Z,103036.19
2023-05-17T07:10:53.304Z,103039.38
2023-05-17T07:13:21.682Z,103034.66
2023-05-17T07:15:49.979Z,102986.16
2023-05-17T07:18:18.188Z,103035.28
2023-05-17T07:20:46.211Z,103039.53
2023-05-17T07:23:14.729Z,103019.94
2023-05-17T07:25:43.274Z,103033.81
2023-05-17T07:28:12.940Z,103020.44
2023-05-17T07:30:46.269Z,103037.91
2023-05-17T07:33:15.181Z,103039.44
2023-05-17T07:35:43.188Z,103042.66
2023-05-17T07:38:11.835Z,103053.00
2023-05-17T07:40:39.962Z,103056.25
2023-05-17T07:43:08.037Z,103027.00
2023-05-17T07:45:37.780Z,103042.88
2023-05-17T07:48:06.384Z,103054.34
2023-05-17T07:50:34.501Z,103051.84
2023-05-17T07:53:02.879Z,103057.13
2023-05-17T07:55:31.389Z,103048.31
2023-05-17T07:58:01.206Z,103022.63
2023-05-17T08:00:29.520Z,103048.88
2023-05-17T08:02:59.142Z,103058.41
2023-05-17T08:05:27.788Z,103058.19
2023-05-17T08:07:59.608Z,103045.63
2023-05-17T08:10:28.107Z,103060.34
2023-05-17T08:12:56.392Z,103045.03
2023-05-17T08:15:24.455Z,103060.75
2023-05-17T08:17:52.948Z,103062.34
2023-05-17T08:20:22.799Z,103054.03
2023-05-17T08:22:51.069Z,103057.25
2023-05-17T08:25:19.274Z,103060.69
2023-05-17T08:27:47.419Z,103065.56
2023-05-17T08:30:25.293Z,103063.28
2023-05-17T08:32:57.233Z,103058.31
2023-05-17T08:35:29.115Z,103048.97
2023-05-17T08:37:57.306Z,103055.75
2023-05-17T08:40:25.543Z,103060.88
2023-05-17T08:42:53.938Z,103060.59
2023-05-17T08:45:24.645Z,103052.50
2023-05-17T08:47:54.575Z,103058.13
2023-05-17T08:50:22.708Z,103052.41
2023-05-17T08:52:52.766Z,103057.59
2023-05-17T08:55:20.925Z,103042.16
2023-05-17T08:57:49.635Z,103049.91
2023-05-17T09:00:19.038Z,103047.03
2023-05-17T09:02:47.434Z,103046.31
2023-05-17T09:05:16.597Z,103050.00
2023-05-17T09:07:45.128Z,103040.13
2023-05-17T09:10:17.580Z,103036.56
2023-05-17T09:12:45.966Z,103052.25
2023-05-17T09:15:16.351Z,103044.16
2023-05-17T09:17:44.496Z,103047.59
2023-05-17T09:20:12.935Z,103050.28
2023-05-17T09:22:41.535Z,103044.91
2023-05-17T09:25:11.744Z,103030.44
2023-05-17T09:27:41.600Z,103034.38
2023-05-17T09:30:16.267Z,103042.09
2023-05-17T09:35:29.680Z,103025.06
2023-05-17T09:37:58.406Z,103017.94
2023-05-17T09:40:26.831Z,103019.47
2023-05-17T09:42:56.220Z,103021.75
2023-05-17T09:45:24.760Z,103030.28
2023-05-17T09:47:53.101Z,103021.69
2023-05-17T09:50:22.041Z,103019.59
2023-05-17T09:52:51.906Z,103018.19
2023-05-17T09:55:20.181Z,103008.88
2023-05-17T09:57:48.757Z,103011.28
2023-05-17T10:00:19.735Z,103009.38
2023-05-17T10:02:48.243Z,103013.47
2023-05-17T10:05:16.718Z,103008.16
2023-05-17T10:07:44.945Z,103016.03
2023-05-17T10:10:16.411Z,103015.06
2023-05-17T10:12:44.362Z,103009.47
2023-05-17T10:15:12.410Z,103010.13
2023-05-17T10:17:43.955Z,102998.47
2023-05-17T10:20:14.506Z,103002.03
2023-05-17T10:22:42.579Z,102998.41
2023-05-17T10:25:11.564Z,102988.19
2023-05-17T10:27:39.504Z,102996.09
2023-05-17T10:30:09.231Z,102989.66
2023-05-17T10:32:37.276Z,102995.59
2023-05-17T10:35:12.057Z,102996.25
2023-05-17T10:37:41.227Z,102993.47
2023-05-17T10:40:14.447Z,102997.91
2023-05-17T10:42:42.705Z,102996.50
2023-05-17T10:45:11.711Z,102999.47
2023-05-17T10:47:44.302Z,102955.03
2023-05-17T10:50:17.251Z,102990.84
2023-05-17T10:52:49.062Z,102994.09
2023-05-17T10:55:20.305Z,102991.13
2023-05-17T10:58:18.301Z,102988.69
2023-05-17T11:00:48.330Z,102997.88
2023-05-17T11:03:17.975Z,102988.31
2023-05-17T11:06:23.306Z,102980.53
2023-05-17T11:09:09.567Z,102988.63
2023-05-17T11:11:37.647Z,102976.28
2023-05-17T11:14:06.373Z,102975.28
2023-05-17T11:16:37.085Z,102973.84
2023-05-17T11:19:08.662Z,102975.72
2023-05-17T11:21:39.538Z,102985.63
2023-05-17T11:24:08.774Z,102984.41
2023-05-17T11:26:38.822Z,102977.91
2023-05-17T11:29:09.102Z,102985.56
2023-05-17T11:31:37.662Z,102993.03
2023-05-17T11:34:05.810Z,102986.34
2023-05-17T11:36:35.385Z,102985.53
2023-05-17T11:39:14.774Z,102985.44
2023-05-17T11:41:49.672Z,102975.34
2023-05-17T11:44:19.410Z,102981.78
2023-05-17T11:46:47.327Z,102974.91
2023-05-17T11:49:34.052Z,102973.91
2023-05-17T11:52:04.040Z,102980.16
2023-05-17T11:54:33.634Z,102936.25
2023-05-17T11:57:02.926Z,102972.50
2023-05-17T11:59:31.407Z,102973.72
2023-05-17T12:02:01.280Z,102944.31
2023-05-17T12:04:30.622Z,102961.31
2023-05-17T12:07:04.024Z,102971.38
2023-05-17T12:09:33.295Z,102963.06
2023-05-17T12:12:05.188Z,102976.97
2023-05-17T12:14:34.097Z,102969.88
2023-05-17T12:17:02.647Z,102970.97
2023-05-17T12:19:33.929Z,102967.06
2023-05-17T12:22:12.592Z,102970.09
2023-05-17T12:24:43.147Z,102961.91
2023-05-17T12:27:11.658Z,102955.47
2023-05-17T12:29:41.291Z,102954.06
2023-05-17T12:32:10.008Z,102949.56
2023-05-17T12:34:38.290Z,102955.81
2023-05-17T12:37:10.436Z,102944.59
2023-05-17T12:39:38.654Z,102953.78
2023-05-17T12:42:08.772Z,102945.28
2023-05-17T12:44:36.805Z,102943.13
2023-05-17T12:47:05.075Z,102947.69
2023-05-17T12:49:33.027Z,102941.50
2023-05-17T12:52:08.226Z,102952.06
2023-05-17T12:54:39.110Z,102935.28
2023-05-17T12:57:16.248Z,102938.28
2023-05-17T12:59:48.999Z,102935.50
2023-05-17T13:02:20.703Z,102937.41
2023-05-17T13:04:48.839Z,102931.94
2023-05-17T13:07:22.839Z,102938.22
2023-05-17T13:21:38.134Z,102935.78
2023-05-17T13:24:06.243Z,102938.78
2023-05-17T13:26:34.094Z,102948.59
2023-05-17T13:29:01.931Z,102942.19
2023-05-17T13:31:29.803Z,102947.59
2023-05-17T13:33:57.751Z,102951.22
2023-05-17T13:36:25.758Z,102950.56
2023-05-17T13:38:56.769Z,102953.97
2023-05-17T13:41:24.977Z,102949.78
2023-05-17T13:43:52.816Z,102941.25
2023-05-17T13:46:20.707Z,102934.28
2023-05-17T13:48:48.808Z,102948.19
2023-05-17T13:51:16.723Z,102943.91
2023-05-17T13:53:44.621Z,102937.53
2023-05-17T13:56:13.818Z,102942.63
2023-05-17T13:58:41.634Z,102943.69
2023-05-17T14:01:09.523Z,102940.53
2023-05-17T14:03:37.490Z,102938.06
2023-05-17T14:06:06.496Z,102935.66
2023-05-17T14:08:36.823Z,102927.09
2023-05-17T14:11:05.303Z,102931.13
2023-05-17T14:13:34.977Z,102931.84
2023-05-17T14:16:02.933Z,102936.31
2023-05-17T14:18:32.926Z,102941.69
2023-05-17T14:21:01.287Z,102934.47
2023-05-17T14:23:29.240Z,102932.75
2023-05-17T14:25:57.794Z,102930.56
2023-05-17T14:28:25.909Z,102930.91
2023-05-17T14:30:55.210Z,102928.44
2023-05-17T14:33:23.257Z,102922.06
2023-05-17T14:35:51.753Z,102926.28
2023-05-17T14:38:20.485Z,102900.38
2023-05-17T14:40:48.399Z,102912.56
2023-05-17T14:43:16.451Z,102894.06
2023-05-17T14:45:44.416Z,102920.47
2023-05-17T14:48:13.798Z,102911.38
2023-05-17T14:50:41.863Z,102912.81
2023-05-17T14:53:09.840Z,102916.47
2023-05-17T14:55:38.200Z,102908.22
2023-05-17T14:58:07.061Z,102915.75
2023-05-17T15:00:36.259Z,102910.84
2023-05-17T15:03:05.048Z,102918.06
2023-05-17T15:05:35.057Z,102922.84
2023-05-17T15:08:03.780Z,102917.50
2023-05-17T15:10:32.838Z,102917.00
2023-05-17T15:13:01.804Z,102919.75
2023-05-17T15:15:30.896Z,102920.91
2023-05-17T15:18:00.493Z,102916.13
2023-05-17T15:20:29.697Z,102920.63
2023-05-17T15:22:59.995Z,102912.66
2023-05-17T15:25:28.992Z,102910.50
2023-05-17T15:27:57.919Z,102916.38
2023-05-17T15:30:27.907Z,102915.03
2023-05-17T15:32:57.587Z,102914.72
2023-05-17T15:35:27.591Z,102915.09
2023-05-17T15:37:56.769Z,102911.19
2023-05-17T15:40:26.919Z,102927.91
2023-05-17T15:42:55.714Z,102914.69
2023-05-17T15:45:24.284Z,102912.09
2023-05-17T15:47:53.895Z,102902.75
2023-05-17T15:50:22.776Z,102909.69
2023-05-17T15:52:54.802Z,102905.38
2023-05-17T15:55:23.726Z,102909.34
2023-05-17T15:57:53.976Z,102907.94
2023-05-17T16:00:23.155Z,102907.97
2023-05-17T16:02:51.344Z,102906.19
2023-05-17T16:05:19.659Z,102915.78
2023-05-17T16:07:48.261Z,102912.63
2023-05-17T16:10:16.649Z,102914.91
2023-05-17T16:12:45.063Z,102909.66
2023-05-17T16:15:14.805Z,102908.34
2023-05-17T16:17:42.892Z,102900.50
2023-05-17T16:20:12.271Z,102897.97
2023-05-17T16:22:43.341Z,102895.28
2023-05-17T16:25:11.913Z,102898.50
2023-05-17T16:27:39.967Z,102900.22
2023-05-17T16:30:09.319Z,102902.44
2023-05-17T16:32:38.680Z,102895.69
2023-05-17T16:35:07.236Z,102904.38
2023-05-17T16:37:35.171Z,102904.31
2023-05-17T16:40:03.446Z,102905.41
2023-05-17T16:42:31.558Z,102896.34
2023-05-17T16:44:59.669Z,102898.38
2023-05-17T16:47:28.088Z,102896.81
2023-05-17T16:49:57.712Z,102895.72
2023-05-17T16:52:25.847Z,102891.34
2023-05-17T16:54:53.907Z,102892.84
2023-05-17T16:57:21.873Z,102889.97
2023-05-17T16:59:49.827Z,102886.75
2023-05-17T17:02:17.859Z,102885.09
2023-05-17T17:04:45.860Z,102887.31
2023-05-17T17:07:15.171Z,102881.13
2023-05-17T17:09:43.069Z,102887.28
2023-05-17T17:12:23.640Z,102886.66
2023-05-17T17:14:52.851Z,102877.94
2023-05-17T17:17:20.810Z,102879.06
2023-05-17T17:19:48.931Z,102883.28
2023-05-17T17:22:18.298Z,102875.38
2023-05-17T17:24:46.251Z,102874.19
2023-05-17T17:27:14.155Z,102873.09
2023-05-17T17:29:42.089Z,102878.03
2023-05-17T17:32:10.177Z,102872.91
2023-05-17T17:34:38.767Z,102876.53
2023-05-17T17:37:07.037Z,102875.66
2023-05-17T17:39:36.332Z,102883.44
2023-05-17T17:42:04.369Z,102875.00
2023-05-17T17:44:32.363Z,102882.34
2023-05-17T17:47:00.418Z,102871.59
2023-05-17T17:49:28.423Z,102881.06
2023-05-17T17:51:58.068Z,102872.47
2023-05-17T17:54:26.134Z,102883.13
2023-05-17T17:56:55.953Z,102873.00
2023-05-17T17:59:23.890Z,102877.50
2023-05-17T18:01:51.900Z,102873.88
2023-05-17T18:04:19.982Z,102880.81
2023-05-17T18:06:48.564Z,102874.16
2023-05-17T18:09:16.515Z,102868.59
2023-05-17T18:11:44.403Z,102881.50
2023-05-17T18:14:15.384Z,102879.50
2023-05-17T18:16:43.407Z,102879.75
2023-05-17T18:19:11.521Z,102885.44
2023-05-17T18:21:39.466Z,102878.94
2023-05-17T18:24:08.122Z,102875.69
2023-05-17T18:26:36.100Z,102865.16
2023-05-17T18:29:04.099Z,102888.91
2023-05-17T18:31:33.457Z,102889.09
2023-05-17T18:34:01.338Z,102893.75
2023-05-17T18:36:29.298Z,102895.03
2023-05-17T18:38:58.714Z,102893.38
2023-05-17T18:41:27.125Z,102894.09
2023-05-17T18:43:55.935Z,102907.97
2023-05-17T18:46:23.868Z,102906.69
2023-05-17T18:48:53.175Z,102900.78
2023-05-17T18:51:21.102Z,102897.41
2023-05-17T18:53:48.999Z,102895.56
2023-05-17T18:56:22.699Z,102891.09
2023-05-17T18:58:52.003Z,102890.50
2023-05-17T19:01:20.055Z,102893.50
2023-05-17T19:03:48.153Z,102896.28
2023-05-17T19:06:17.865Z,102889.59
2023-05-17T19:08:46.201Z,102895.47
2023-05-17T19:11:14.246Z,102895.97
2023-05-17T19:13:42.277Z,102895.50
2023-05-17T19:16:10.198Z,102893.19
2023-05-17T19:18:38.136Z,102889.25
2023-05-17T19:21:06.161Z,102891.56
2023-05-17T19:23:36.082Z,102891.28
2023-05-17T19:26:04.054Z,102897.00
2023-05-17T19:28:35.851Z,102894.50
2023-05-17T19:31:03.873Z,102885.81
2023-05-17T19:33:34.098Z,102884.13
2023-05-17T19:36:02.291Z,102888.91
2023-05-17T19:38:30.155Z,102887.34
2023-05-17T19:40:59.734Z,102891.06
2023-05-17T19:43:28.243Z,102885.00
2023-05-17T19:45:56.187Z,102886.22
2023-05-17T19:48:25.234Z,102878.41
2023-05-17T19:50:56.136Z,102893.78
2023-05-17T19:53:24.759Z,102887.75
2023-05-17T19:55:54.794Z,102894.13
2023-05-17T19:58:25.421Z,102887.03
2023-05-17T20:00:53.363Z,102894.38
2023-05-17T20:03:22.475Z,102887.41
2023-05-17T20:05:50.921Z,102893.94
2023-05-17T20:08:18.843Z,102898.69
2023-05-17T20:10:46.834Z,102898.16
2023-05-17T20:13:14.808Z,102894.84
2023-05-17T20:15:44.084Z,102899.44
2023-05-17T20:18:12.952Z,102895.22
2023-05-17T20:20:40.833Z,102894.50
2023-05-17T20:23:08.792Z,102884.81
2023-05-17T20:25:38.228Z,102879.44
2023-05-17T20:28:06.383Z,102892.00
2023-05-17T20:30:34.306Z,102891.09
2023-05-17T20:33:03.758Z,102894.69
2023-05-17T20:35:31.759Z,102896.47
2023-05-17T20:37:59.630Z,102897.44
2023-05-17T20:40:27.863Z,102902.84
2023-05-17T20:42:56.559Z,102910.06
2023-05-17T20:45:24.466Z,102900.34
2023-05-17T20:47:52.684Z,102898.63
2023-05-17T20:50:22.087Z,102906.81
2023-05-17T20:52:50.041Z,102902.41
2023-05-17T20:55:17.953Z,102894.53
2023-05-17T20:57:46.359Z,102899.16
2023-05-17T21:00:17.065Z,102898.34
2023-05-17T21:02:45.081Z,102892.97
2023-05-17T21:05:13.458Z,102892.97
2023-05-17T21:07:42.773Z,102892.00
2023-05-17T21:10:10.956Z,102889.38
2023-05-17T21:12:38.873Z,102889.50
2023-05-17T21:15:15.654Z,102891.38
2023-05-17T21:17:44.847Z,102894.06
2023-05-17T21:20:14.028Z,102885.34
2023-05-17T21:22:43.332Z,102891.66
2023-05-17T21:25:11.558Z,102894.28
2023-05-17T21:27:39.702Z,102896.97
2023-05-17T21:30:09.091Z,102887.97
2023-05-17T21:32:37.091Z,102885.41
2023-05-17T21:35:06.063Z,102883.63
2023-05-17T21:37:33.977Z,102885.50
2023-05-17T21:40:03.332Z,102885.66
2023-05-17T21:42:31.242Z,102887.44
2023-05-17T21:44:59.161Z,102868.97
2023-05-17T21:47:27.112Z,102875.81
2023-05-17T21:49:55.214Z,102882.06
2023-05-17T21:52:23.137Z,102878.44
2023-05-17T21:54:51.052Z,102883.72
2023-05-17T21:57:21.227Z,102879.31
2023-05-17T21:59:49.208Z,102875.72
2023-05-17T22:02:17.342Z,102866.78
2023-05-17T22:04:45.306Z,102872.16
2023-05-17T22:07:14.097Z,102865.81
2023-05-17T22:09:42.052Z,102848.38
2023-05-17T22:12:12.216Z,102870.28
2023-05-17T22:14:44.528Z,102870.34
2023-05-17T22:17:12.468Z,102873.06
2023-05-17T22:19:41.664Z,102862.38
2023-05-17T22:22:10.202Z,102868.84
2023-05-17T22:24:38.198Z,102873.53
2023-05-17T22:27:06.372Z,102870.94
2023-05-17T22:29:34.399Z,102877.47
2023-05-17T22:32:03.788Z,102871.34
2023-05-17T22:34:31.939Z,102872.41
2023-05-17T22:36:59.960Z,102870.06
2023-05-17T22:39:27.915Z,102876.59
2023-05-17T22:41:55.844Z,102868.69
2023-05-17T22:44:23.727Z,102877.88
2023-05-17T22:46:51.752Z,102878.94
2023-05-17T22:49:21.067Z,102873.69
2023-05-17T22:51:48.955Z,102872.03
2023-05-17T22:54:16.856Z,102870.28
2023-05-17T22:56:44.784Z,102871.25
2023-05-17T22:59:12.830Z,102875.91
2023-05-17T23:01:40.923Z,102878.84
2023-05-17T23:04:08.981Z,102874.63
2023-05-17T23:06:38.396Z,102874.00
2023-05-17T23:09:06.364Z,102882.22
2023-05-17T23:11:35.496Z,102873.63
2023-05-17T23:14:03.423Z,102884.38
2023-05-17T23:16:31.409Z,102879.22
2023-05-17T23:19:00.245Z,102881.13
2023-05-17T23:21:28.194Z,102885.59
2023-05-17T23:23:57.482Z,102882.94
2023-05-17T23:26:25.582Z,102886.56
2023-05-17T23:28:53.634Z,102879.56
2023-05-17T23:31:21.733Z,102875.22
2023-05-17T23:33:50.330Z,102885.19
2023-05-17T23:36:18.333Z,102888.91
2023-05-17T23:38:46.401Z,102883.75
2023-05-17T23:41:18.202Z,102882.03
2023-05-17T23:43:46.908Z,102875.84
2023-05-17T23:46:19.961Z,102876.81
2023-05-17T23:48:50.609Z,102890.25
2023-05-17T23:51:19.874Z,102887.72
2023-05-17T23:53:49.071Z,102887.91
2023-05-17T23:56:18.624Z,102893.25
2023-05-17T23:58:46.652Z,102893.28
